Cuffley, United Kingdom
Current Conditions -  °F | °C
As of 7:50 AM on Sunday 26 Oct 2014 (Local Time) from EGGW Reporting Station
Broken Clouds Broken Clouds  
Wind Chill: 11°   Ceiling: 2800
Heat Index: 11°   Visibility: 6mi
Dew Point:   Wind: 8mph
Humidity: 82%   Direction: 220°SW
Pressure: 30.12"   Gusts: NA
Location:  51.71°N, 0.11°W
Report Text: EGGW 260650Z 22007KT 9999 BKN028 11/08 Q1020
Loading
Personal Weather Stations






























Interactive Weather Map
Tropical Storm Tracking
New forecast layout! Learn more

10-Day Weather Forecast

Advertisements
Track Severe Weather on mobile